Time;durP1;ratioP1;P1;durP2;ratioP2;P2;SDS_P1;SDS_P2;PMS_P1;PMS_P2;Temp;Humidity;BMP_temperature;BMP_pressure;BME280_temperature;BME280_humidity;BME280_pressure;Samples;Min_cycle;Max_cycle;Signal;HPM_P1;HPM_P2
2023/10/23 00:01:14;;;;;;;7.57;5.22;;;;;;;5.22;nan;101379.22;5032708;28;20037;-80
2023/10/23 00:03:40;;;;;;;9.55;5.40;;;;;;;5.18;nan;101374.22;5032612;28;20029;-81
2023/10/23 00:06:06;;;;;;;10.45;5.65;;;;;;;5.14;nan;101378.81;5032955;28;20044;-82
2023/10/23 00:08:31;;;;;;;8.85;5.63;;;;;;;5.13;nan;101374.47;5015183;28;20045;-81
2023/10/23 00:10:57;;;;;;;13.13;5.82;;;;;;;5.12;nan;101383.34;5033554;28;20037;-81
2023/10/23 00:13:22;;;;;;;9.73;5.28;;;;;;;5.10;nan;101380.78;5032855;28;20079;-82
2023/10/23 00:15:47;;;;;;;11.18;5.80;;;;;;;5.07;nan;101382.75;4998716;28;20342;-81
2023/10/23 00:18:13;;;;;;;8.43;5.88;;;;;;;5.03;nan;101379.47;5032428;28;20045;-81
2023/10/23 00:20:38;;;;;;;12.65;5.75;;;;;;;4.98;nan;101383.31;5032592;28;20493;-81
2023/10/23 00:23:03;;;;;;;11.50;6.05;;;;;;;4.92;nan;101385.34;5032611;28;20469;-81
2023/10/23 00:25:29;;;;;;;11.95;6.32;;;;;;;4.88;nan;101378.56;5032707;28;20108;-81
2023/10/23 00:27:54;;;;;;;8.25;4.88;;;;;;;4.84;nan;101384.13;5032784;28;20063;-80
2023/10/23 00:30:19;;;;;;;8.13;4.88;;;;;;;4.81;nan;101382.50;5014738;28;20034;-81
2023/10/23 00:32:45;;;;;;;7.65;4.30;;;;;;;4.75;nan;101381.06;5032908;28;20057;-81
2023/10/23 00:35:10;;;;;;;6.13;4.68;;;;;;;4.70;nan;101380.47;5032709;28;20092;-81
2023/10/23 00:37:35;;;;;;;8.90;5.03;;;;;;;4.66;nan;101380.72;5032490;28;20036;-82
2023/10/23 00:40:01;;;;;;;6.47;4.18;;;;;;;4.64;nan;101382.59;5032834;28;20088;-81
2023/10/23 00:42:26;;;;;;;7.90;4.57;;;;;;;4.61;nan;101378.34;5032566;28;20068;-81
2023/10/23 00:44:52;;;;;;;7.32;4.45;;;;;;;4.58;nan;101376.75;5014932;28;20033;-81
2023/10/23 00:47:18;;;;;;;5.45;4.15;;;;;;;4.53;nan;101384.06;5032258;28;20045;-81
2023/10/23 00:49:44;;;;;;;8.27;5.53;;;;;;;4.53;nan;101386.69;5031958;28;20033;-81
2023/10/23 00:52:10;;;;;;;8.18;4.68;;;;;;;4.55;nan;101386.59;5032399;28;20469;-81
2023/10/23 00:54:36;;;;;;;9.77;5.75;;;;;;;4.54;nan;101383.13;5032714;28;20045;-81
2023/10/23 00:57:03;;;;;;;6.57;4.70;;;;;;;4.52;nan;101389.41;5032196;28;20056;-81
2023/10/23 00:59:29;;;;;;;10.90;5.82;;;;;;;4.48;nan;101387.88;5032530;28;20438;-82
2023/10/23 01:01:54;;;;;;;9.15;5.90;;;;;;;4.48;nan;101396.66;5014769;28;20045;-81
2023/10/23 01:04:20;;;;;;;9.60;5.70;;;;;;;4.45;nan;101395.97;5032477;28;20048;-83
2023/10/23 01:06:46;;;;;;;12.10;5.63;;;;;;;4.43;nan;101400.47;5032314;28;20096;-82
2023/10/23 01:09:11;;;;;;;8.15;5.53;;;;;;;4.40;nan;101401.50;5032373;28;20446;-82
2023/10/23 01:11:36;;;;;;;7.18;4.68;;;;;;;4.37;nan;101404.28;5032363;28;20029;-82
2023/10/23 01:14:02;;;;;;;8.68;5.40;;;;;;;4.36;nan;101410.50;5032382;28;20437;-82
2023/10/23 01:16:27;;;;;;;8.88;5.90;;;;;;;4.33;nan;101408.03;5032232;28;20061;-82
2023/10/23 01:18:53;;;;;;;9.73;5.47;;;;;;;4.30;nan;101416.97;5032223;28;20054;-83
2023/10/23 01:21:18;;;;;;;14.88;6.18;;;;;;;4.30;nan;101414.34;5032339;28;20034;-82
2023/10/23 01:23:45;;;;;;;18.98;6.53;;;;;;;4.32;nan;101416.91;5032090;28;20395;-82
2023/10/23 01:26:10;;;;;;;10.60;6.15;;;;;;;4.32;nan;101424.78;5031942;28;20545;-82
2023/10/23 01:28:35;;;;;;;13.98;6.10;;;;;;;4.30;nan;101419.63;5014686;28;20038;-82
2023/10/23 01:31:01;;;;;;;11.05;5.50;;;;;;;4.29;nan;101422.34;5031921;28;20034;-82
2023/10/23 01:33:26;;;;;;;9.23;5.03;;;;;;;4.24;nan;101414.69;5013796;28;20021;-82
2023/10/23 01:35:51;;;;;;;7.65;5.25;;;;;;;4.20;nan;101408.72;5031764;28;20026;-82
2023/10/23 01:38:18;;;;;;;10.45;5.55;;;;;;;4.20;nan;101413.16;5031459;28;20104;-82
2023/10/23 01:40:43;;;;;;;9.55;4.95;;;;;;;4.19;nan;101406.16;5031976;28;20079;-82
2023/10/23 01:43:08;;;;;;;10.73;5.90;;;;;;;4.20;nan;101407.88;5031856;28;20029;-81
2023/10/23 01:45:34;;;;;;;6.93;5.18;;;;;;;4.23;nan;101407.72;5031805;28;20140;-82
2023/10/23 01:47:59;;;;;;;9.80;5.78;;;;;;;4.21;nan;101399.88;5031518;28;20142;-80
2023/10/23 01:50:25;;;;;;;10.85;5.35;;;;;;;4.21;nan;101399.88;5031987;28;20045;-82
2023/10/23 01:52:51;;;;;;;9.90;5.78;;;;;;;4.19;nan;101395.63;5013922;28;20041;-82
2023/10/23 01:55:16;;;;;;;8.20;5.20;;;;;;;4.17;nan;101400.97;5031683;28;20355;-82
2023/10/23 01:57:41;;;;;;;6.55;4.85;;;;;;;4.17;nan;101394.88;5013559;28;20065;-81
2023/10/23 02:00:09;;;;;;;7.60;4.78;;;;;;;4.15;nan;101394.09;5032280;28;20032;-82
2023/10/23 02:02:34;;;;;;;8.93;5.65;;;;;;;4.13;nan;101394.19;5017931;28;20452;-83
2023/10/23 02:05:00;;;;;;;7.57;5.35;;;;;;;4.13;nan;101404.72;5017730;28;20112;-83
2023/10/23 02:07:27;;;;;;;9.95;5.82;;;;;;;4.12;nan;101408.28;5017343;28;20164;-83
2023/10/23 02:09:53;;;;;;;8.57;5.60;;;;;;;4.12;nan;101416.19;5035411;28;20485;-83
2023/10/23 02:12:18;;;;;;;8.63;4.95;;;;;;;4.08;nan;101421.72;5035139;28;20048;-83
2023/10/23 02:14:43;;;;;;;6.88;4.93;;;;;;;4.03;nan;101414.91;5035097;28;20033;-83
2023/10/23 02:17:09;;;;;;;8.90;5.32;;;;;;;4.01;nan;101415.91;5035490;28;20037;-83
2023/10/23 02:19:34;;;;;;;8.93;5.45;;;;;;;3.99;nan;101418.63;5035356;28;20540;-83
2023/10/23 02:22:00;;;;;;;7.78;5.47;;;;;;;3.98;nan;101418.72;5034949;28;20382;-82
2023/10/23 02:24:25;;;;;;;10.48;5.07;;;;;;;3.93;nan;101408.44;5035166;28;20040;-82
2023/10/23 02:26:51;;;;;;;10.88;6.07;;;;;;;3.91;nan;101407.66;5035045;28;20060;-82
2023/10/23 02:29:16;;;;;;;9.18;6.32;;;;;;;3.93;nan;101428.66;5017154;28;20033;-80
2023/10/23 02:31:42;;;;;;;7.75;5.10;;;;;;;3.91;nan;101418.19;5034509;28;20095;-80
2023/10/23 02:34:07;;;;;;;11.05;5.57;;;;;;;3.87;nan;101421.94;5034753;28;20037;-79
2023/10/23 02:36:33;;;;;;;7.40;5.10;;;;;;;3.86;nan;101423.69;5034784;28;20041;-80
2023/10/23 02:38:59;;;;;;;7.35;5.00;;;;;;;3.83;nan;101423.00;5016966;28;20037;-82
2023/10/23 02:41:25;;;;;;;10.95;6.43;;;;;;;3.81;nan;101419.63;5035181;28;20124;-82
2023/10/23 02:43:50;;;;;;;9.80;6.00;;;;;;;3.84;nan;101422.09;5035617;28;20419;-80
2023/10/23 02:46:16;;;;;;;8.40;4.88;;;;;;;3.82;nan;101432.69;5035112;28;20033;-82
2023/10/23 02:48:42;;;;;;;8.82;4.72;;;;;;;3.76;nan;101425.09;5035292;28;20104;-82
2023/10/23 02:51:08;;;;;;;8.85;5.10;;;;;;;3.70;nan;101428.06;5034917;28;20041;-82
2023/10/23 02:53:34;;;;;;;7.03;4.90;;;;;;;3.66;nan;101424.75;5035003;28;20034;-82
2023/10/23 02:55:59;;;;;;;5.65;4.38;;;;;;;3.65;nan;101438.84;5035528;28;20049;-82
2023/10/23 02:58:24;;;;;;;7.50;4.50;;;;;;;3.62;nan;101425.00;5035996;28;20450;-82
2023/10/23 03:00:50;;;;;;;8.93;5.50;;;;;;;3.63;nan;101429.34;5034778;28;20113;-82
2023/10/23 03:03:15;;;;;;;11.35;6.43;;;;;;;3.67;nan;101425.59;5034873;28;20034;-82
2023/10/23 03:05:40;;;;;;;11.38;6.93;;;;;;;3.68;nan;101422.88;5035132;28;20108;-83
2023/10/23 03:08:06;;;;;;;13.00;6.40;;;;;;;3.68;nan;101425.50;5034409;28;20060;-83
2023/10/23 03:10:32;;;;;;;9.68;5.82;;;;;;;3.69;nan;101431.66;5034471;28;20052;-83
2023/10/23 03:12:57;;;;;;;12.32;6.10;;;;;;;3.64;nan;101439.78;5033628;28;20030;-82
2023/10/23 03:15:23;;;;;;;7.18;5.22;;;;;;;3.58;nan;101441.88;5033598;28;20042;-82
2023/10/23 03:17:49;;;;;;;8.07;5.45;;;;;;;3.52;nan;101446.53;5033679;28;20116;-82
2023/10/23 03:20:15;;;;;;;9.30;5.90;;;;;;;3.50;nan;101448.38;4999957;28;20058;-81
2023/10/23 03:22:41;;;;;;;8.50;5.18;;;;;;;3.46;nan;101441.59;5033775;28;20044;-81
2023/10/23 03:25:07;;;;;;;8.13;4.95;;;;;;;3.43;nan;101448.75;5033320;28;20049;-81
2023/10/23 03:27:33;;;;;;;12.07;7.03;;;;;;;3.39;nan;101445.44;5033338;28;20044;-80
2023/10/23 03:29:59;;;;;;;9.80;5.70;;;;;;;3.42;nan;101445.28;5033529;28;20059;-81
2023/10/23 03:32:25;;;;;;;9.30;5.38;;;;;;;3.42;nan;101441.78;4999885;28;20025;-81
2023/10/23 03:34:50;;;;;;;9.38;6.47;;;;;;;3.41;nan;101435.69;5033854;28;20065;-81
2023/10/23 03:37:16;;;;;;;9.65;5.90;;;;;;;3.45;nan;101439.88;5033697;28;20075;-80
2023/10/23 03:39:42;;;;;;;7.97;5.20;;;;;;;3.47;nan;101432.75;5016378;28;20057;-80
2023/10/23 03:42:08;;;;;;;8.32;5.57;;;;;;;3.46;nan;101438.94;5033350;28;20034;-80
2023/10/23 03:44:34;;;;;;;7.45;5.30;;;;;;;3.48;nan;101436.25;5015242;28;20425;-80
2023/10/23 03:47:00;;;;;;;11.05;6.60;;;;;;;3.46;nan;101444.22;5033676;28;20154;-80
2023/10/23 03:49:26;;;;;;;12.73;6.20;;;;;;;3.46;nan;101438.94;5033361;28;20063;-80
2023/10/23 03:51:51;;;;;;;7.90;5.88;;;;;;;3.43;nan;101443.50;5032794;28;20029;-80
2023/10/23 03:54:16;;;;;;;11.32;5.50;;;;;;;3.45;nan;101444.25;5032999;28;20048;-80
2023/10/23 03:56:42;;;;;;;11.50;7.43;;;;;;;3.50;nan;101451.00;5032704;28;20039;-79
2023/10/23 03:59:07;;;;;;;15.18;7.47;;;;;;;3.60;nan;101448.75;5015461;28;20045;-80
2023/10/23 04:01:32;;;;;;;11.30;6.30;;;;;;;3.72;nan;101449.91;5033756;28;20703;-80
2023/10/23 04:03:57;;;;;;;11.75;6.40;;;;;;;3.80;nan;101450.34;5034279;28;20036;-80
2023/10/23 04:06:23;;;;;;;8.75;6.32;;;;;;;3.92;nan;101448.00;5034197;28;20037;-81
2023/10/23 04:08:52;;;;;;;13.57;6.15;;;;;;;4.03;nan;101446.50;5034092;28;20091;-81
2023/10/23 04:11:18;;;;;;;13.73;7.18;;;;;;;4.18;nan;101443.97;5017451;28;20083;-81
2023/10/23 04:13:43;;;;;;;22.25;8.85;;;;;;;4.37;nan;101449.97;5034309;28;20033;-81
2023/10/23 04:16:08;;;;;;;25.13;9.63;;;;;;;4.53;nan;101449.94;5033590;28;20386;-81
2023/10/23 04:18:34;;;;;;;25.92;9.90;;;;;;;4.66;nan;101446.63;5033252;28;20065;-81
2023/10/23 04:21:07;;;;;;;25.65;10.43;;;;;;;4.79;nan;101441.53;5032998;28;20038;-81
2023/10/23 04:23:33;;;;;;;19.88;9.70;;;;;;;4.87;nan;101445.44;5032029;28;20025;-80
2023/10/23 04:25:58;;;;;;;29.13;9.90;;;;;;;4.94;nan;101449.41;5032668;28;20363;-80
2023/10/23 04:28:24;;;;;;;29.65;15.65;;;;;;;5.06;nan;101445.22;5015055;28;20046;-79
2023/10/23 04:30:49;;;;;;;56.53;16.63;;;;;;;5.19;nan;101447.16;5032794;28;20033;-79
2023/10/23 04:33:19;;;;;;;30.50;15.98;;;;;;;5.32;nan;101442.84;5032498;28;20044;-79
2023/10/23 04:35:45;;;;;;;34.33;15.65;;;;;;;5.46;nan;101448.19;5032452;28;20033;-80
2023/10/23 04:38:10;;;;;;;30.48;17.00;;;;;;;5.56;nan;101448.47;5032314;28;20029;-80
2023/10/23 04:40:35;;;;;;;40.97;17.77;;;;;;;5.68;nan;101453.97;5032660;28;20040;-79
2023/10/23 04:43:01;;;;;;;65.75;17.63;;;;;;;5.75;nan;101450.84;5032426;28;20065;-80
2023/10/23 04:45:26;;;;;;;37.20;17.35;;;;;;;5.83;nan;101453.03;5032281;28;20030;-80
2023/10/23 04:47:51;;;;;;;38.25;17.40;;;;;;;5.89;nan;101459.72;5032028;28;20033;-80
2023/10/23 04:50:16;;;;;;;34.55;16.27;;;;;;;5.91;nan;101455.19;5032007;28;20034;-80
2023/10/23 04:52:43;;;;;;;38.47;17.90;;;;;;;5.92;nan;101457.75;5032088;28;20124;-80
2023/10/23 04:55:08;;;;;;;31.20;17.17;;;;;;;5.97;nan;101455.72;5032551;28;20030;-80
2023/10/23 04:57:34;;;;;;;46.50;16.63;;;;;;;6.03;nan;101448.34;5032206;28;20389;-80
2023/10/23 04:59:59;;;;;;;40.45;16.45;;;;;;;6.06;nan;101448.16;5032440;28;20114;-81
2023/10/23 05:02:25;;;;;;;31.58;15.95;;;;;;;6.09;nan;101447.97;5032274;28;20124;-78
2023/10/23 05:04:50;;;;;;;38.08;18.00;;;;;;;6.12;nan;101447.75;5032307;28;20033;-81
2023/10/23 05:07:16;;;;;;;37.95;18.45;;;;;;;6.15;nan;101450.22;5032128;28;20038;-82
2023/10/23 05:09:42;;;;;;;56.75;20.60;;;;;;;6.18;nan;101450.06;5032263;28;20065;-81
2023/10/23 05:12:07;;;;;;;31.45;17.98;;;;;;;6.23;nan;101453.25;5032019;28;20474;-82
2023/10/23 05:14:33;;;;;;;69.07;21.92;;;;;;;6.26;nan;101449.56;5031808;28;20029;-81
2023/10/23 05:16:58;;;;;;;42.10;19.98;;;;;;;6.31;nan;101453.59;5031935;28;20041;-82
2023/10/23 05:19:24;;;;;;;63.15;20.45;;;;;;;6.34;nan;101453.44;5032271;28;20046;-81
2023/10/23 05:21:50;;;;;;;93.22;21.85;;;;;;;6.39;nan;101450.50;5033066;28;20339;-80
2023/10/23 05:24:15;;;;;;;41.70;19.17;;;;;;;6.40;nan;101452.16;5032143;28;20128;-83
2023/10/23 05:26:41;;;;;;;50.97;20.60;;;;;;;6.46;nan;101453.59;5031871;28;20056;-81
2023/10/23 05:29:06;;;;;;;53.13;19.17;;;;;;;6.47;nan;101447.38;5032162;28;20160;-79
2023/10/23 05:31:31;;;;;;;37.10;20.25;;;;;;;6.51;nan;101449.72;5014295;28;20462;-80
2023/10/23 05:33:57;;;;;;;52.88;20.92;;;;;;;6.53;nan;101447.81;5032044;28;20096;-80
2023/10/23 05:36:22;;;;;;;126.00;21.50;;;;;;;6.57;nan;101452.91;5035225;28;20042;-80
2023/10/23 05:38:47;;;;;;;36.95;20.00;;;;;;;6.56;nan;101460.00;5035550;28;20077;-80
2023/10/23 05:41:13;;;;;;;52.10;19.88;;;;;;;6.56;nan;101460.00;5018110;28;20083;-81
2023/10/23 05:43:38;;;;;;;42.90;20.80;;;;;;;6.58;nan;101462.53;5035887;28;20047;-82
2023/10/23 05:46:04;;;;;;;49.90;19.90;;;;;;;6.58;nan;101451.97;5035405;28;20029;-80
2023/10/23 05:48:30;;;;;;;40.58;20.27;;;;;;;6.61;nan;101465.81;5035464;28;20034;-80
2023/10/23 05:51:00;;;;;;;38.53;19.75;;;;;;;6.63;nan;101458.66;5017805;28;20124;-80
2023/10/23 05:53:27;;;;;;;69.82;20.25;;;;;;;6.64;nan;101457.72;5035314;28;20029;-80
2023/10/23 05:55:53;;;;;;;41.10;19.70;;;;;;;6.64;nan;101452.44;5035302;28;20033;-81
2023/10/23 05:58:19;;;;;;;53.80;20.83;;;;;;;6.65;nan;101454.09;5035237;28;20093;-80
2023/10/23 06:00:44;;;;;;;71.97;19.13;;;;;;;6.65;nan;101446.16;5034807;28;20099;-79
2023/10/23 06:03:10;;;;;;;39.28;19.58;;;;;;;6.66;nan;101453.16;5017405;28;20037;-79
2023/10/23 06:05:42;;;;;;;72.13;19.30;;;;;;;6.69;nan;101454.78;5035491;28;20343;-79
2023/10/23 06:08:08;;;;;;;52.00;19.00;;;;;;;6.68;nan;101458.34;5035210;28;20033;-82
2023/10/23 06:10:41;;;;;;;46.05;18.77;;;;;;;6.67;nan;101460.16;5035136;28;20167;-78
2023/10/23 06:13:06;;;;;;;50.97;18.92;;;;;;;6.66;nan;101453.16;5035320;28;20030;-79
2023/10/23 06:15:32;;;;;;;120.80;19.38;;;;;;;6.65;nan;101466.50;5035181;28;20047;-79
2023/10/23 06:17:57;;;;;;;55.65;18.55;;;;;;;6.65;nan;101467.31;5034467;28;20409;-80
2023/10/23 06:20:23;;;;;;;45.53;18.05;;;;;;;6.68;nan;101458.34;5035269;28;20120;-80
2023/10/23 06:22:48;;;;;;;46.92;18.65;;;;;;;6.68;nan;101461.84;5034839;28;20029;-80
2023/10/23 06:25:14;;;;;;;88.00;19.42;;;;;;;6.70;nan;101457.31;5034960;28;20037;-79
2023/10/23 06:27:39;;;;;;;46.67;19.27;;;;;;;6.74;nan;101460.59;5034614;28;20037;-79
2023/10/23 06:30:05;;;;;;;55.85;18.05;;;;;;;6.75;nan;101464.09;5017128;28;20126;-79
2023/10/23 06:32:34;;;;;;;68.57;19.45;;;;;;;6.76;nan;101460.50;5017553;28;20037;-80
2023/10/23 06:34:59;;;;;;;39.58;19.90;;;;;;;6.77;nan;101460.41;5017019;28;20382;-78
2023/10/23 06:37:24;;;;;;;169.25;21.23;;;;;;;6.77;nan;101454.28;5034512;28;20029;-80
2023/10/23 06:39:50;;;;;;;52.67;19.35;;;;;;;6.78;nan;101456.81;5034322;28;20031;-83
2023/10/23 06:42:15;;;;;;;50.33;19.27;;;;;;;6.80;nan;101462.00;5034410;28;20057;-82
2023/10/23 06:44:41;;;;;;;77.90;19.98;;;;;;;6.82;nan;101453.03;5000237;28;20033;-81
2023/10/23 06:47:07;;;;;;;76.18;21.67;;;;;;;6.87;nan;101450.91;5033487;28;20029;-81
2023/10/23 06:49:32;;;;;;;101.13;22.70;;;;;;;6.93;nan;101449.69;5034468;28;20091;-84
2023/10/23 06:51:58;;;;;;;81.03;21.75;;;;;;;6.96;nan;101454.78;5034266;28;20029;-82
2023/10/23 06:54:26;;;;;;;57.72;21.48;;;;;;;7.01;nan;101457.94;5034339;28;20048;-82
2023/10/23 06:56:52;;;;;;;62.10;21.50;;;;;;;7.07;nan;101452.25;5034247;28;20386;-81
2023/10/23 06:59:17;;;;;;;80.95;21.55;;;;;;;7.12;nan;101446.69;5033934;28;20129;-79
2023/10/23 07:01:42;;;;;;;72.43;21.98;;;;;;;7.20;nan;101454.09;5034001;28;20496;-83
2023/10/23 07:04:08;;;;;;;54.33;22.45;;;;;;;7.26;nan;101456.34;5036757;28;20056;-83
2023/10/23 07:06:33;;;;;;;77.35;23.73;;;;;;;7.32;nan;101453.28;5033873;28;20037;-82
2023/10/23 07:09:02;;;;;;;108.85;25.83;;;;;;;7.39;nan;101454.56;5033466;28;20040;-84
2023/10/23 07:11:27;;;;;;;216.48;28.02;;;;;;;7.50;nan;101461.78;5016932;28;20038;-84
2023/10/23 07:13:52;;;;;;;90.28;26.52;;;;;;;7.59;nan;101462.97;5034032;28;20060;-84
2023/10/23 07:16:18;;;;;;;156.80;28.20;;;;;;;7.68;nan;101450.88;5034674;28;20033;-81
2023/10/23 07:18:43;;;;;;;123.78;28.83;;;;;;;7.77;nan;101451.09;5034027;28;20057;-84
2023/10/23 07:21:09;;;;;;;103.30;29.63;;;;;;;7.87;nan;101455.78;5034771;28;20029;-84
2023/10/23 07:23:34;;;;;;;107.68;30.95;;;;;;;7.95;nan;101462.22;5034965;28;20499;-83
2023/10/23 07:26:07;;;;;;;125.72;30.25;;;;;;;8.05;nan;101456.28;5034184;28;20069;-82
2023/10/23 07:28:34;;;;;;;166.60;31.27;;;;;;;8.12;nan;101453.09;5034622;28;20030;-84
2023/10/23 07:31:02;;;;;;;239.77;32.30;;;;;;;8.22;nan;101449.78;5034206;28;20041;-83
2023/10/23 07:33:28;;;;;;;173.80;31.85;;;;;;;8.29;nan;101448.41;5034368;28;20179;-85
2023/10/23 07:36:04;;;;;;;257.17;34.45;;;;;;;8.35;nan;101457.72;5033852;28;20075;-84
2023/10/23 07:38:30;;;;;;;194.27;33.72;;;;;;;8.40;nan;101456.41;5034464;28;20036;-85
2023/10/23 07:40:56;;;;;;;164.93;32.40;;;;;;;8.46;nan;101464.00;5016526;28;20120;-83
2023/10/23 07:43:21;;;;;;;164.52;31.55;;;;;;;8.50;nan;101458.47;5015856;28;20061;-84
2023/10/23 07:45:47;;;;;;;196.23;34.13;;;;;;;8.56;nan;101460.69;5033872;28;20137;-83
2023/10/23 07:48:12;;;;;;;287.85;36.80;;;;;;;8.60;nan;101460.34;5033955;28;20041;-83
2023/10/23 07:50:37;;;;;;;157.93;33.55;;;;;;;8.68;nan;101470.38;5016227;28;20029;-83
2023/10/23 07:53:03;;;;;;;299.33;37.70;;;;;;;8.71;nan;101464.84;5034207;28;20048;-83
2023/10/23 07:55:28;;;;;;;251.90;35.78;;;;;;;8.76;nan;101459.22;5016121;28;20059;-83
2023/10/23 07:57:54;;;;;;;159.32;34.63;;;;;;;8.83;nan;101460.47;5032441;28;20037;-82
2023/10/23 08:00:19;;;;;;;167.63;35.38;;;;;;;8.90;nan;101453.75;5033426;28;20080;-81
2023/10/23 08:02:44;;;;;;;170.90;34.35;;;;;;;8.92;nan;101450.97;5034097;28;20037;-88
2023/10/23 08:05:10;;;;;;;170.57;35.58;;;;;;;8.93;nan;101455.34;5016360;28;20038;-88
2023/10/23 08:07:35;;;;;;;184.75;35.63;;;;;;;9.00;nan;101454.78;5033970;28;20048;-83
2023/10/23 08:10:01;;;;;;;231.88;38.20;;;;;;;9.02;nan;101451.13;5033930;28;20037;-84
2023/10/23 08:12:26;;;;;;;185.85;35.95;;;;;;;9.10;nan;101448.78;5033323;28;20097;-83
2023/10/23 08:14:51;;;;;;;176.45;35.20;;;;;;;9.15;nan;101436.84;5033684;28;20095;-83
2023/10/23 08:17:17;;;;;;;168.90;36.70;;;;;;;9.25;nan;101438.81;4999224;28;20075;-83
2023/10/23 08:19:42;;;;;;;172.45;35.80;;;;;;;9.26;nan;101430.72;5033039;28;20058;-82
2023/10/23 08:22:07;;;;;;;153.50;34.05;;;;;;;9.31;nan;101433.88;5033270;28;20385;-82
2023/10/23 08:24:33;;;;;;;209.77;37.05;;;;;;;9.38;nan;101439.56;5033749;28;20029;-85
2023/10/23 08:26:58;;;;;;;153.45;36.17;;;;;;;9.44;nan;101444.41;5015496;28;20051;-83
2023/10/23 08:29:23;;;;;;;139.13;34.03;;;;;;;9.47;nan;101443.34;5033118;28;20046;-82
2023/10/23 08:31:49;;;;;;;128.27;33.58;;;;;;;9.53;nan;101448.19;5033143;28;20037;-80
2023/10/23 08:34:14;;;;;;;113.55;31.75;;;;;;;9.56;nan;101449.75;5032915;28;20030;-79
2023/10/23 08:36:39;;;;;;;116.80;31.15;;;;;;;9.61;nan;101444.94;5032727;28;20035;-78
2023/10/23 08:39:05;;;;;;;103.68;30.85;;;;;;;9.55;nan;101448.06;5015150;28;20477;-78
2023/10/23 08:41:31;;;;;;;104.03;31.05;;;;;;;9.60;nan;101449.41;5033449;28;20041;-78
2023/10/23 08:43:56;;;;;;;113.72;30.13;;;;;;;9.64;nan;101450.00;5033271;28;20037;-78
2023/10/23 08:46:25;;;;;;;94.95;28.92;;;;;;;9.66;nan;101438.31;5033366;28;20052;-79
2023/10/23 08:48:51;;;;;;;102.25;29.10;;;;;;;9.61;nan;101444.94;5032831;28;20069;-83
2023/10/23 08:51:18;;;;;;;91.05;28.67;;;;;;;9.64;nan;101439.38;5032654;28;20037;-80
2023/10/23 08:54:07;;;;;;;88.10;28.27;;;;;;;9.74;nan;101437.72;5032991;28;20068;-82
2023/10/23 08:56:37;;;;;;;78.45;26.80;;;;;;;9.76;nan;101435.75;5033285;28;20030;-78
2023/10/23 08:59:03;;;;;;;74.82;25.45;;;;;;;9.76;nan;101440.25;5032757;28;20030;-78
2023/10/23 09:01:29;;;;;;;74.85;26.95;;;;;;;9.81;nan;101446.91;5032505;28;20115;-79
2023/10/23 09:03:54;;;;;;;78.15;26.13;;;;;;;9.81;nan;101441.59;5032693;28;20025;-78
2023/10/23 09:06:20;;;;;;;72.50;25.58;;;;;;;9.86;nan;101449.19;5032858;28;20033;-77
2023/10/23 09:08:45;;;;;;;75.35;25.65;;;;;;;9.92;nan;101439.91;5032895;28;20111;-81
2023/10/23 09:11:11;;;;;;;69.60;25.02;;;;;;;9.96;nan;101444.03;5037160;28;20036;-81
2023/10/23 09:13:38;;;;;;;66.82;24.90;;;;;;;10.00;nan;101445.44;5036563;28;20041;-81
2023/10/23 09:16:08;;;;;;;69.13;25.85;;;;;;;10.07;nan;101438.69;5036706;28;20033;-77
2023/10/23 09:18:46;;;;;;;66.88;26.10;;;;;;;10.10;nan;101435.78;5036726;28;20057;-80
2023/10/23 09:21:11;;;;;;;64.65;25.02;;;;;;;10.11;nan;101436.66;5036938;28;20454;-81
2023/10/23 09:23:53;;;;;;;59.75;25.50;;;;;;;10.10;nan;101433.13;5036765;28;20044;-82
2023/10/23 09:26:22;;;;;;;65.38;25.70;;;;;;;10.10;nan;101434.94;5036657;28;20030;-81
2023/10/23 09:28:52;;;;;;;59.65;24.33;;;;;;;10.09;nan;101436.78;5036916;28;20358;-81
2023/10/23 09:31:19;;;;;;;51.05;23.60;;;;;;;10.05;nan;101433.50;5036992;28;20029;-82
2023/10/23 09:33:45;;;;;;;61.03;23.48;;;;;;;10.06;nan;101434.31;5018520;28;20123;-80
2023/10/23 09:36:11;;;;;;;57.90;24.67;;;;;;;10.11;nan;101432.16;5036872;28;20030;-80
2023/10/23 09:38:39;;;;;;;56.90;23.30;;;;;;;10.16;nan;101439.78;5036259;28;20383;-84
2023/10/23 09:41:09;;;;;;;50.55;22.80;;;;;;;10.12;nan;101428.56;5036191;28;20037;-83
2023/10/23 09:43:42;;;;;;;44.70;21.60;;;;;;;10.13;nan;101429.38;5036671;28;20094;-79
2023/10/23 09:46:10;;;;;;;52.20;22.73;;;;;;;10.18;nan;101432.50;5036518;28;20033;-80
2023/10/23 09:48:36;;;;;;;47.75;22.40;;;;;;;10.11;nan;101434.00;5036247;28;20021;-81
2023/10/23 09:51:04;;;;;;;40.67;21.27;;;;;;;10.05;nan;101432.66;5036121;28;20032;-80
2023/10/23 09:53:32;;;;;;;42.90;21.33;;;;;;;10.03;nan;101427.47;5036414;28;20025;-80
2023/10/23 09:56:03;;;;;;;43.47;21.50;;;;;;;9.99;nan;101430.50;5036313;28;20481;-79
2023/10/23 09:58:32;;;;;;;42.40;21.05;;;;;;;9.95;nan;101437.00;5036840;28;20032;-80
2023/10/23 10:01:04;;;;;;;41.20;21.25;;;;;;;9.96;nan;101431.56;5036372;28;20485;-81
2023/10/23 10:03:35;;;;;;;44.63;21.15;;;;;;;9.96;nan;101428.91;5036351;28;20025;-82
2023/10/23 10:06:13;;;;;;;44.95;21.60;;;;;;;10.01;nan;101436.53;5036686;28;20033;-81
2023/10/23 10:08:44;;;;;;;44.25;22.10;;;;;;;10.02;nan;101423.09;5036025;28;20025;-80
2023/10/23 10:11:10;;;;;;;37.90;20.97;;;;;;;10.03;nan;101424.81;5036177;28;20472;-81
2023/10/23 10:13:36;;;;;;;40.45;20.42;;;;;;;10.04;nan;101421.16;5036207;28;20372;-79
2023/10/23 10:16:04;;;;;;;44.78;21.27;;;;;;;10.13;nan;101424.91;5035819;28;20037;-80
2023/10/23 10:18:30;;;;;;;42.80;21.05;;;;;;;10.11;nan;101429.50;5035533;28;20042;-81
2023/10/23 10:21:00;;;;;;;44.08;21.45;;;;;;;10.17;nan;101425.53;5017244;28;20037;-81
2023/10/23 10:23:27;;;;;;;46.78;21.75;;;;;;;10.19;nan;101426.22;5036444;28;20108;-82
2023/10/23 10:25:54;;;;;;;46.35;21.58;;;;;;;10.23;nan;101425.03;5037298;28;20057;-82
2023/10/23 10:28:25;;;;;;;47.13;22.25;;;;;;;10.28;nan;101422.00;5035932;28;20109;-81
2023/10/23 10:30:50;;;;;;;;;;;;;;;10.35;nan;101421.41;5036689;28;20040;-80
2023/10/23 10:33:19;;;;;;;49.28;23.05;;;;;;;10.38;nan;101417.66;5035585;28;19913;-80
2023/10/23 10:35:55;;;;;;;62.20;23.23;;;;;;;10.45;nan;101421.53;5035504;28;20036;-79
2023/10/23 10:38:25;;;;;;;51.60;22.50;;;;;;;10.51;nan;101422.81;5035667;28;20034;-80
2023/10/23 10:41:02;;;;;;;51.03;22.40;;;;;;;10.53;nan;101410.25;5036206;28;20043;-79
2023/10/23 10:43:40;;;;;;;48.33;23.25;;;;;;;10.59;nan;101409.75;5018332;28;20370;-78
2023/10/23 10:46:22;;;;;;;55.25;23.80;;;;;;;10.71;nan;101408.75;5035344;28;20045;-80
2023/10/23 10:48:50;;;;;;;45.63;22.80;;;;;;;10.76;nan;101400.38;5035716;28;20476;-79
2023/10/23 10:51:26;;;;;;;50.00;22.50;;;;;;;10.83;nan;101400.72;5035190;28;20032;-79
2023/10/23 10:54:03;;;;;;;54.22;23.90;;;;;;;10.89;nan;101395.72;5018157;28;20315;-78
2023/10/23 10:56:32;;;;;;;47.00;22.75;;;;;;;10.86;nan;101387.16;5035013;28;20060;-79
2023/10/23 10:59:02;;;;;;;51.80;24.95;;;;;;;10.88;nan;101377.22;5035370;28;20040;-79
2023/10/23 11:01:27;;;;;;;54.60;25.60;;;;;;;10.83;nan;101380.28;5035573;28;20037;-80
2023/10/23 11:03:53;;;;;;;60.92;25.17;;;;;;;10.84;nan;101375.78;5034864;28;20044;-79
2023/10/23 11:06:18;;;;;;;63.67;26.17;;;;;;;10.87;nan;101365.75;5035001;28;20033;-77
2023/10/23 11:08:46;;;;;;;60.40;26.00;;;;;;;10.92;nan;101360.84;5035233;28;20037;-79
2023/10/23 11:11:12;;;;;;;58.03;25.15;;;;;;;11.01;nan;101361.06;5034836;28;20033;-78
2023/10/23 11:13:37;;;;;;;57.88;25.98;;;;;;;11.06;nan;101357.06;5016838;28;20429;-76
2023/10/23 11:16:04;;;;;;;59.40;24.95;;;;;;;11.11;nan;101354.00;5035087;28;20052;-78
2023/10/23 11:18:30;;;;;;;58.83;26.73;;;;;;;11.19;nan;101362.16;5034233;28;20482;-76
2023/10/23 11:21:00;;;;;;;59.90;26.20;;;;;;;11.16;nan;101349.13;5034970;28;20116;-79
2023/10/23 11:23:29;;;;;;;54.78;25.70;;;;;;;11.15;nan;101341.25;5016946;28;20033;-81
2023/10/23 11:25:55;;;;;;;56.65;25.17;;;;;;;11.23;nan;101336.97;5016911;28;20116;-79
2023/10/23 11:28:24;;;;;;;58.90;25.45;;;;;;;11.34;nan;101328.03;5016343;28;20546;-82
2023/10/23 11:30:57;;;;;;;58.42;25.08;;;;;;;11.47;nan;101327.84;5034504;28;20033;-81
2023/10/23 11:33:23;;;;;;;57.03;25.05;;;;;;;11.61;nan;101323.97;5034036;28;20385;-82